createdAt,value
2022-11-03T00:01:41.781Z,2.62
2022-11-03T00:04:11.305Z,2.61
2022-11-03T00:06:39.203Z,2.59
2022-11-03T00:09:07.632Z,2.55
2022-11-03T00:11:40.581Z,2.50
2022-11-03T00:14:11.368Z,2.46
2022-11-03T00:16:42.249Z,2.46
2022-11-03T00:19:09.981Z,2.46
2022-11-03T00:21:38.612Z,2.48
2022-11-03T00:24:08.101Z,2.44
2022-11-03T00:26:44.404Z,2.47
2022-11-03T00:29:13.086Z,2.51
2022-11-03T00:31:43.856Z,2.48
2022-11-03T00:34:12.898Z,2.49
2022-11-03T00:36:44.439Z,2.56
2022-11-03T00:39:16.136Z,2.52
2022-11-03T00:41:48.905Z,2.44
2022-11-03T00:44:15.650Z,2.40
2022-11-03T00:46:45.391Z,2.42
2022-11-03T00:49:12.079Z,2.42
2022-11-03T00:51:39.051Z,2.40
2022-11-03T00:54:07.335Z,2.32
2022-11-03T00:56:41.664Z,2.31
2022-11-03T00:59:10.063Z,2.31
2022-11-03T01:01:45.655Z,2.36
2022-11-03T01:04:33.437Z,2.35
2022-11-03T01:07:02.236Z,2.32
2022-11-03T01:09:39.986Z,2.29
2022-11-03T01:12:08.382Z,2.23
2022-11-03T01:14:52.149Z,2.13
2022-11-03T01:17:21.121Z,2.12
2022-11-03T01:19:48.134Z,2.10
2022-11-03T01:22:15.793Z,2.25
2022-11-03T01:24:45.965Z,2.12
2022-11-03T01:27:18.686Z,2.16
2022-11-03T01:29:45.481Z,2.11
2022-11-03T01:32:12.695Z,2.09
2022-11-03T01:34:39.438Z,2.09
2022-11-03T01:37:06.738Z,2.09
2022-11-03T01:39:36.264Z,2.05
2022-11-03T01:42:02.956Z,2.04
2022-11-03T01:44:35.032Z,2.05
2022-11-03T01:47:07.634Z,1.96
2022-11-03T01:49:45.315Z,2.01
2022-11-03T01:52:26.490Z,1.87
2022-11-03T01:54:59.725Z,1.84
2022-11-03T01:57:33.938Z,1.86
2022-11-03T02:00:01.559Z,1.83
2022-11-03T02:02:28.631Z,1.83
2022-11-03T02:04:57.732Z,1.86
2022-11-03T02:07:34.355Z,1.83
2022-11-03T02:10:01.462Z,1.76
2022-11-03T02:12:28.183Z,1.88
2022-11-03T02:15:00.489Z,1.86
2022-11-03T02:17:29.194Z,1.72
2022-11-03T02:20:06.085Z,1.73
2022-11-03T02:23:01.192Z,1.75
2022-11-03T02:25:33.378Z,1.79
2022-11-03T02:28:00.468Z,1.72
2022-11-03T02:30:28.433Z,1.76
2022-11-03T02:33:06.566Z,1.88
2022-11-03T02:36:15.065Z,1.81
2022-11-03T02:39:11.472Z,1.74
2022-11-03T02:41:39.180Z,1.68
2022-11-03T02:44:11.498Z,1.81
2022-11-03T02:46:39.088Z,1.75
2022-11-03T02:49:05.707Z,1.78
2022-11-03T02:51:32.463Z,1.69
2022-11-03T02:54:20.716Z,1.69
2022-11-03T02:56:53.796Z,1.69
2022-11-03T02:59:25.558Z,1.67
2022-11-03T03:01:58.386Z,1.67
2022-11-03T03:04:47.302Z,1.81
2022-11-03T03:07:20.735Z,1.71
2022-11-03T03:09:55.066Z,1.78
2022-11-03T03:12:21.652Z,1.76
2022-11-03T03:14:49.767Z,1.81
2022-11-03T03:17:19.663Z,1.80
2022-11-03T03:19:54.313Z,1.91
2022-11-03T03:22:43.217Z,2.03
2022-11-03T03:25:20.243Z,2.04
2022-11-03T03:27:49.280Z,2.10
2022-11-03T03:30:16.239Z,2.11
2022-11-03T03:32:48.195Z,2.16
2022-11-03T03:35:21.399Z,2.23
2022-11-03T03:37:50.744Z,2.32
2022-11-03T03:40:23.232Z,2.34
2022-11-03T03:42:50.859Z,2.43
2022-11-03T03:45:18.607Z,2.49
2022-11-03T03:47:45.569Z,2.56
2022-11-03T03:50:12.394Z,2.58
2022-11-03T03:52:39.015Z,2.79
2022-11-03T03:55:08.067Z,2.80
2022-11-03T03:57:34.643Z,2.83
2022-11-03T04:00:01.288Z,2.89
2022-11-03T04:02:27.967Z,2.93
2022-11-03T04:04:54.684Z,2.97
2022-11-03T04:07:42.664Z,3.03
2022-11-03T04:10:10.365Z,3.01
2022-11-03T04:12:55.680Z,3.00
2022-11-03T04:15:40.916Z,2.99
2022-11-03T04:18:26.701Z,3.06
2022-11-03T04:21:12.081Z,3.08
2022-11-03T04:23:39.007Z,3.22
2022-11-03T04:26:11.943Z,3.30
2022-11-03T04:28:38.679Z,3.22
2022-11-03T04:31:07.038Z,3.30
2022-11-03T04:33:33.656Z,3.22
2022-11-03T04:36:00.344Z,3.20
2022-11-03T04:38:27.809Z,3.27
2022-11-03T04:40:56.336Z,3.16
2022-11-03T04:43:30.359Z,3.07
2022-11-03T04:45:57.158Z,3.06
2022-11-03T04:48:25.060Z,3.19
2022-11-03T04:50:54.952Z,3.20
2022-11-03T04:53:22.520Z,3.16
2022-11-03T04:55:53.550Z,3.17
2022-11-03T04:58:28.986Z,3.15
2022-11-03T05:01:00.050Z,3.12
2022-11-03T05:03:32.319Z,3.11
2022-11-03T05:05:59.289Z,3.17
2022-11-03T05:08:25.919Z,3.13
2022-11-03T05:10:52.646Z,3.10
2022-11-03T05:13:24.258Z,3.13
2022-11-03T05:15:52.416Z,3.09
2022-11-03T05:18:25.824Z,3.05
2022-11-03T05:21:01.354Z,3.02
2022-11-03T05:23:30.261Z,3.07
2022-11-03T05:25:58.356Z,3.13
2022-11-03T05:28:27.182Z,3.18
2022-11-03T05:30:54.355Z,3.14
2022-11-03T05:33:33.878Z,3.21
2022-11-03T05:36:04.728Z,3.12
2022-11-03T05:38:32.912Z,3.10
2022-11-03T05:41:00.250Z,3.07
2022-11-03T05:43:28.433Z,3.18
2022-11-03T05:45:58.552Z,3.16
2022-11-03T05:48:41.117Z,3.19
2022-11-03T05:51:15.918Z,3.31
2022-11-03T05:53:43.503Z,3.23
2022-11-03T05:56:17.831Z,3.31
2022-11-03T05:58:44.636Z,3.20
2022-11-03T06:01:13.958Z,3.14
2022-11-03T06:03:40.683Z,3.20
2022-11-03T06:06:36.766Z,3.14
2022-11-03T06:09:09.468Z,3.14
2022-11-03T06:11:37.026Z,3.20
2022-11-03T06:14:16.567Z,3.18
2022-11-03T06:16:48.481Z,3.21
2022-11-03T06:19:21.125Z,3.16
2022-11-03T06:21:49.778Z,3.08
2022-11-03T06:24:18.193Z,3.19
2022-11-03T06:26:46.370Z,3.30
2022-11-03T06:29:17.467Z,3.39
2022-11-03T06:31:47.978Z,3.33
2022-11-03T06:34:21.236Z,3.36
2022-11-03T06:36:47.883Z,3.51
2022-11-03T06:39:20.905Z,3.52
2022-11-03T06:41:47.575Z,3.48
2022-11-03T06:44:24.829Z,3.50
2022-11-03T06:46:53.573Z,3.59
2022-11-03T06:49:33.288Z,3.65
2022-11-03T06:52:03.465Z,3.76
2022-11-03T06:54:30.114Z,3.97
2022-11-03T06:56:56.781Z,3.98
2022-11-03T06:59:24.621Z,3.95
2022-11-03T07:01:54.748Z,3.91
2022-11-03T07:04:23.056Z,4.05
2022-11-03T07:06:53.317Z,4.07
2022-11-03T07:09:22.549Z,4.12
2022-11-03T07:11:51.885Z,4.13
2022-11-03T07:14:21.916Z,4.22
2022-11-03T07:16:51.237Z,4.26
2022-11-03T07:19:27.441Z,4.24
2022-11-03T07:21:59.846Z,4.28
2022-11-03T07:24:33.866Z,4.32
2022-11-03T07:27:27.321Z,4.36
2022-11-03T07:30:14.899Z,4.43
2022-11-03T07:32:42.240Z,4.42
2022-11-03T07:35:17.927Z,4.49
2022-11-03T07:37:45.072Z,4.68
2022-11-03T07:40:18.677Z,4.71
2022-11-03T07:42:45.382Z,4.78
2022-11-03T07:45:34.182Z,4.80
2022-11-03T07:48:11.059Z,4.91
2022-11-03T07:50:38.608Z,5.03
2022-11-03T07:53:12.052Z,5.03
2022-11-03T07:55:38.657Z,5.05
2022-11-03T07:58:36.096Z,5.19
2022-11-03T08:01:16.849Z,5.17
2022-11-03T08:03:46.425Z,5.32
2022-11-03T08:06:14.678Z,5.32
2022-11-03T08:08:43.864Z,5.46
2022-11-03T08:11:10.715Z,5.46
2022-11-03T08:13:37.378Z,5.63
2022-11-03T08:16:04.140Z,5.67
2022-11-03T08:18:30.716Z,5.77
2022-11-03T08:20:57.374Z,5.81
2022-11-03T08:23:26.078Z,5.91
2022-11-03T08:25:53.013Z,5.95
2022-11-03T08:28:19.621Z,6.06
2022-11-03T08:30:46.242Z,6.18
2022-11-03T08:33:12.916Z,6.21
2022-11-03T08:35:39.586Z,6.26
2022-11-03T08:38:06.452Z,6.38
2022-11-03T08:40:33.249Z,6.46
2022-11-03T08:43:02.955Z,6.53
2022-11-03T08:45:30.346Z,6.53
2022-11-03T08:47:57.221Z,6.61
2022-11-03T08:50:24.490Z,6.69
2022-11-03T08:52:51.233Z,6.67
2022-11-03T08:55:18.065Z,6.86
2022-11-03T08:57:44.674Z,7.00
2022-11-03T09:00:12.022Z,7.03
2022-11-03T09:02:38.845Z,7.14
2022-11-03T09:05:07.761Z,7.31
2022-11-03T09:10:26.347Z,7.65
2022-11-03T09:12:59.494Z,7.79
2022-11-03T09:15:26.113Z,7.88
2022-11-03T09:17:52.814Z,7.96
2022-11-03T09:20:21.048Z,8.32
2022-11-03T09:22:47.690Z,8.33
2022-11-03T09:25:14.417Z,8.30
2022-11-03T09:27:41.055Z,8.41
2022-11-03T09:30:13.282Z,8.56
2022-11-03T09:32:41.037Z,8.73
2022-11-03T09:35:09.609Z,8.79
2022-11-03T09:37:36.878Z,8.93
2022-11-03T09:40:04.306Z,8.99
2022-11-03T09:42:34.367Z,9.24
2022-11-03T09:45:02.030Z,9.37
2022-11-03T09:47:36.378Z,9.63
2022-11-03T09:50:03.514Z,9.70
2022-11-03T09:52:31.065Z,9.91
2022-11-03T09:54:59.613Z,10.09
2022-11-03T09:57:29.395Z,10.27
2022-11-03T09:59:56.148Z,10.50
2022-11-03T10:02:28.620Z,10.58
2022-11-03T10:04:57.487Z,10.84
2022-11-03T10:07:26.231Z,10.97
2022-11-03T10:09:54.289Z,11.23
2022-11-03T10:12:22.002Z,11.31
2022-11-03T10:14:49.045Z,11.44
2022-11-03T10:17:22.219Z,11.59
2022-11-03T10:19:51.571Z,11.68
2022-11-03T10:22:20.278Z,11.61
2022-11-03T10:24:46.837Z,11.67
2022-11-03T10:27:22.132Z,11.75
2022-11-03T10:30:10.513Z,11.74
2022-11-03T10:32:38.157Z,11.78
2022-11-03T10:35:34.029Z,11.75
2022-11-03T10:38:31.241Z,11.68
2022-11-03T10:41:13.032Z,11.62
2022-11-03T10:43:41.227Z,11.66
2022-11-03T10:46:44.611Z,11.56
2022-11-03T10:49:15.550Z,11.48
2022-11-03T10:51:43.229Z,11.60
2022-11-03T10:54:13.077Z,11.64
2022-11-03T10:56:39.820Z,11.61
2022-11-03T10:59:06.684Z,11.62
2022-11-03T11:01:33.579Z,11.47
2022-11-03T11:04:00.296Z,11.61
2022-11-03T11:06:30.880Z,11.77
2022-11-03T11:09:02.390Z,11.78
2022-11-03T11:11:29.187Z,11.81
2022-11-03T11:14:21.983Z,11.82
2022-11-03T11:16:53.008Z,11.89
2022-11-03T11:19:22.626Z,11.84
2022-11-03T11:21:56.635Z,11.96
2022-11-03T11:24:45.287Z,12.00
2022-11-03T11:27:31.949Z,12.05
2022-11-03T11:29:59.334Z,12.06
2022-11-03T11:32:44.829Z,12.09
2022-11-03T11:35:16.117Z,12.12
2022-11-03T11:37:43.663Z,12.14
2022-11-03T11:40:36.306Z,12.00
2022-11-03T11:43:02.919Z,12.04
2022-11-03T11:46:07.472Z,12.12
2022-11-03T11:48:36.486Z,12.04
2022-11-03T11:51:04.044Z,11.96
2022-11-03T11:53:44.016Z,11.93
2022-11-03T11:56:14.119Z,11.96
2022-11-03T11:58:42.493Z,11.90
2022-11-03T12:01:30.988Z,11.87
2022-11-03T12:04:00.133Z,11.94
2022-11-03T12:06:38.604Z,11.93
2022-11-03T12:09:29.390Z,11.80
2022-11-03T12:12:07.180Z,11.77
2022-11-03T12:14:37.025Z,11.78
2022-11-03T12:17:19.093Z,11.96
2022-11-03T12:19:47.824Z,11.93
2022-11-03T12:22:23.668Z,11.89
2022-11-03T12:24:51.529Z,11.78
2022-11-03T12:27:42.649Z,11.77
2022-11-03T12:30:19.196Z,11.70
2022-11-03T12:32:46.864Z,11.79
2022-11-03T12:35:14.186Z,11.79
2022-11-03T12:37:42.191Z,11.68
2022-11-03T12:40:10.169Z,11.68
2022-11-03T12:42:37.060Z,11.56
2022-11-03T12:45:04.154Z,11.65
2022-11-03T12:47:30.944Z,11.70
2022-11-03T12:49:57.759Z,11.70
2022-11-03T12:52:24.554Z,11.70
2022-11-03T12:54:51.275Z,11.66
2022-11-03T12:57:18.072Z,11.56
2022-11-03T12:59:44.797Z,11.72
2022-11-03T13:02:11.936Z,11.67
2022-11-03T13:04:39.031Z,11.60
2022-11-03T13:07:05.810Z,11.45
2022-11-03T13:09:32.552Z,11.42
2022-11-03T13:12:17.907Z,11.54
2022-11-03T13:14:47.766Z,11.42
2022-11-03T13:17:15.291Z,11.37
2022-11-03T13:19:42.951Z,11.43
2022-11-03T13:22:09.602Z,11.53
2022-11-03T13:24:36.328Z,11.53
2022-11-03T13:27:03.114Z,11.46
2022-11-03T13:29:34.961Z,11.43
2022-11-03T13:32:03.593Z,11.52
2022-11-03T13:34:30.489Z,11.48
2022-11-03T13:36:57.242Z,11.56
2022-11-03T13:39:23.829Z,11.60
2022-11-03T13:41:50.656Z,11.68
2022-11-03T13:44:17.329Z,11.64
2022-11-03T13:46:43.906Z,11.56
2022-11-03T13:51:57.201Z,11.63
2022-11-03T14:00:01.913Z,11.45
2022-11-03T14:05:18.155Z,11.43
2022-11-03T14:07:45.225Z,11.30
2022-11-03T14:10:14.885Z,11.27
2022-11-03T14:12:41.696Z,11.16
2022-11-03T14:15:11.123Z,11.19
2022-11-03T14:17:39.574Z,11.07
2022-11-03T14:20:11.610Z,10.94
2022-11-03T14:22:39.417Z,10.94
2022-11-03T14:25:06.626Z,10.87
2022-11-03T14:27:34.350Z,10.87
2022-11-03T14:30:01.176Z,10.97
2022-11-03T14:32:28.023Z,10.76
2022-11-03T14:34:54.846Z,10.81
2022-11-03T14:37:24.704Z,10.67
2022-11-03T14:39:51.429Z,10.69
2022-11-03T14:42:18.317Z,10.70
2022-11-03T14:44:46.594Z,10.57
2022-11-03T14:47:18.021Z,10.46
2022-11-03T14:49:46.665Z,10.58
2022-11-03T14:52:14.407Z,10.52
2022-11-03T14:54:41.290Z,10.54
2022-11-03T14:57:08.102Z,10.39
2022-11-03T14:59:34.904Z,10.39
2022-11-03T15:02:02.040Z,10.26
2022-11-03T15:04:29.235Z,10.20
2022-11-03T15:06:55.928Z,10.19
2022-11-03T15:09:22.685Z,10.27
2022-11-03T15:11:49.414Z,10.21
2022-11-03T15:14:16.160Z,10.19
2022-11-03T15:16:44.002Z,10.19
2022-11-03T15:19:10.613Z,10.02
2022-11-03T15:21:37.252Z,9.96
2022-11-03T15:26:51.399Z,9.93
2022-11-03T15:29:18.106Z,9.71
2022-11-03T15:31:48.244Z,9.67
2022-11-03T15:34:16.009Z,9.78
2022-11-03T15:36:42.760Z,9.76
2022-11-03T15:39:09.697Z,9.72
2022-11-03T15:41:36.484Z,9.63
2022-11-03T15:44:03.156Z,9.40
2022-11-03T15:46:39.063Z,9.45
2022-11-03T15:49:05.709Z,9.34
2022-11-03T15:51:32.460Z,9.48
2022-11-03T15:53:59.551Z,9.34
2022-11-03T15:56:27.235Z,9.24
2022-11-03T15:58:54.230Z,9.14
2022-11-03T16:01:21.030Z,8.96
2022-11-03T16:03:47.993Z,8.96
2022-11-03T16:06:14.703Z,8.97
2022-11-03T16:08:41.536Z,8.93
2022-11-03T16:11:09.178Z,8.80
2022-11-03T16:13:36.163Z,8.69
2022-11-03T16:16:03.146Z,8.65
2022-11-03T16:18:29.807Z,8.63
2022-11-03T16:20:56.613Z,8.49
2022-11-03T16:23:23.330Z,8.36
2022-11-03T16:25:50.055Z,8.36
2022-11-03T16:28:16.708Z,8.34
2022-11-03T16:30:43.379Z,8.31
2022-11-03T16:33:10.209Z,8.36
2022-11-03T16:35:36.929Z,8.20
2022-11-03T16:38:04.143Z,8.09
2022-11-03T16:40:30.795Z,8.14
2022-11-03T16:42:57.455Z,8.17
2022-11-03T16:45:26.603Z,8.15
2022-11-03T16:47:53.543Z,8.23
2022-11-03T16:50:20.737Z,8.31
2022-11-03T16:52:49.189Z,8.31
2022-11-03T16:55:17.331Z,8.32
2022-11-03T16:57:44.101Z,8.43
2022-11-03T17:00:13.245Z,8.36
2022-11-03T17:02:40.411Z,8.35
2022-11-03T17:05:07.810Z,8.36
2022-11-03T17:07:34.554Z,8.46
2022-11-03T17:10:01.437Z,8.69
2022-11-03T17:12:28.142Z,8.69
2022-11-03T17:14:56.730Z,8.73
2022-11-03T17:17:23.964Z,8.72
2022-11-03T17:19:51.111Z,8.88
2022-11-03T17:22:18.425Z,8.71
2022-11-03T17:24:45.028Z,8.85
2022-11-03T17:27:29.155Z,9.03
2022-11-03T17:29:58.001Z,9.08
2022-11-03T17:32:27.065Z,9.17
2022-11-03T17:34:54.722Z,9.24
2022-11-03T17:37:21.440Z,9.33
2022-11-03T17:39:48.127Z,9.41
2022-11-03T17:42:24.712Z,9.48
2022-11-03T17:44:53.588Z,9.52
2022-11-03T17:47:20.781Z,9.53
2022-11-03T17:49:48.099Z,9.42
2022-11-03T17:52:27.748Z,9.49
2022-11-03T17:54:56.059Z,9.46
2022-11-03T17:57:23.253Z,9.56
2022-11-03T17:59:51.854Z,9.53
2022-11-03T18:02:21.651Z,9.62
2022-11-03T18:04:49.267Z,9.51
2022-11-03T18:07:21.547Z,9.59
2022-11-03T18:09:48.768Z,9.68
2022-11-03T18:12:35.690Z,9.64
2022-11-03T18:15:05.133Z,9.61
2022-11-03T18:17:32.236Z,9.57
2022-11-03T18:19:59.098Z,9.54
2022-11-03T18:22:25.849Z,9.44
2022-11-03T18:24:52.966Z,9.54
2022-11-03T18:27:24.947Z,9.57
2022-11-03T18:29:52.073Z,9.43
2022-11-03T18:32:19.344Z,9.52
2022-11-03T18:34:47.809Z,9.41
2022-11-03T18:37:14.616Z,9.48
2022-11-03T18:39:41.371Z,9.48
2022-11-03T18:42:13.010Z,9.42
2022-11-03T18:44:41.471Z,9.44
2022-11-03T18:47:08.847Z,9.48
2022-11-03T18:49:35.845Z,9.51
2022-11-03T18:52:15.858Z,9.43
2022-11-03T18:54:47.631Z,9.30
2022-11-03T18:57:15.364Z,9.23
2022-11-03T18:59:44.016Z,9.24
2022-11-03T19:02:17.020Z,9.35
2022-11-03T19:04:43.907Z,9.36
2022-11-03T19:07:16.885Z,9.29
2022-11-03T19:09:44.097Z,9.18
2022-11-03T19:12:11.672Z,9.15
2022-11-03T19:14:39.965Z,9.22
2022-11-03T19:17:26.169Z,9.23
2022-11-03T19:19:53.502Z,9.20
2022-11-03T19:22:21.686Z,9.27
2022-11-03T19:24:48.805Z,9.25
2022-11-03T19:27:22.667Z,9.21
2022-11-03T19:29:49.510Z,9.17
2022-11-03T19:32:25.420Z,9.06
2022-11-03T19:35:06.247Z,9.13
2022-11-03T19:37:35.728Z,9.14
2022-11-03T19:40:08.893Z,9.15
2022-11-03T19:42:39.591Z,9.19
2022-11-03T19:45:10.825Z,9.26
2022-11-03T19:47:57.547Z,9.30
2022-11-03T19:50:34.966Z,9.22
2022-11-03T19:53:03.831Z,9.28
2022-11-03T19:55:34.434Z,9.29
2022-11-03T19:58:11.590Z,9.14
2022-11-03T20:00:38.302Z,9.26
2022-11-03T20:03:05.107Z,9.15
2022-11-03T20:05:31.914Z,9.09
2022-11-03T20:08:01.839Z,9.07
2022-11-03T20:10:31.721Z,9.07
2022-11-03T20:13:01.680Z,9.06
2022-11-03T20:15:28.338Z,9.02
2022-11-03T20:17:57.023Z,9.11
2022-11-03T20:20:29.459Z,8.95
2022-11-03T20:22:58.284Z,8.97
2022-11-03T20:25:31.220Z,8.92
2022-11-03T20:27:58.060Z,8.95
2022-11-03T20:30:26.449Z,8.99
2022-11-03T20:32:53.533Z,8.87
2022-11-03T20:35:28.316Z,8.85
2022-11-03T20:37:58.162Z,8.76
2022-11-03T20:40:26.948Z,8.91
2022-11-03T20:42:56.737Z,8.83
2022-11-03T20:45:24.074Z,8.79
2022-11-03T20:47:51.922Z,8.91
2022-11-03T20:50:20.775Z,8.71
2022-11-03T20:52:48.083Z,8.69
2022-11-03T20:55:27.708Z,8.56
2022-11-03T20:57:56.568Z,8.58
2022-11-03T21:00:30.238Z,8.64
2022-11-03T21:03:01.749Z,8.58
2022-11-03T21:05:34.780Z,8.39
2022-11-03T21:08:04.929Z,8.44
2022-11-03T21:10:31.654Z,8.39
2022-11-03T21:12:58.607Z,8.38
2022-11-03T21:16:03.722Z,8.35
2022-11-03T21:18:49.841Z,8.26
2022-11-03T21:21:20.761Z,8.21
2022-11-03T21:23:48.118Z,8.18
2022-11-03T21:26:14.872Z,8.27
2022-11-03T21:28:44.523Z,8.06
2022-11-03T21:31:17.363Z,8.05
2022-11-03T21:33:44.071Z,8.11
2022-11-03T21:36:10.812Z,7.92
2022-11-03T21:38:37.572Z,7.93
2022-11-03T21:41:25.741Z,7.92
2022-11-03T21:44:11.010Z,7.89
2022-11-03T21:46:38.736Z,7.90
2022-11-03T21:49:23.894Z,7.81
2022-11-03T21:51:50.780Z,7.71
2022-11-03T21:54:17.545Z,7.71
2022-11-03T21:56:46.398Z,7.74
2022-11-03T21:59:13.105Z,7.63
2022-11-03T22:01:39.764Z,7.59
2022-11-03T22:04:06.756Z,7.62
2022-11-03T22:06:33.416Z,7.67
2022-11-03T22:09:00.252Z,7.55
2022-11-03T22:11:29.069Z,7.43
2022-11-03T22:14:00.279Z,7.39
2022-11-03T22:16:45.294Z,7.39
2022-11-03T22:19:33.555Z,7.42
2022-11-03T22:22:19.937Z,7.35
2022-11-03T22:25:05.194Z,7.45
2022-11-03T22:27:35.642Z,7.36
2022-11-03T22:30:21.277Z,7.28
2022-11-03T22:32:53.184Z,7.52
2022-11-03T22:35:40.042Z,7.39
2022-11-03T22:38:17.786Z,7.28
2022-11-03T22:41:05.597Z,7.26
2022-11-03T22:43:51.086Z,7.10
2022-11-03T22:46:17.751Z,7.09
2022-11-03T22:48:44.759Z,7.09
2022-11-03T22:51:14.652Z,7.02
2022-11-03T22:54:00.499Z,7.17
2022-11-03T22:56:29.413Z,7.07
2022-11-03T22:59:01.527Z,7.04
2022-11-03T23:01:28.451Z,7.07
2022-11-03T23:03:55.398Z,7.05
2022-11-03T23:06:25.737Z,7.01
2022-11-03T23:08:54.542Z,7.08
2022-11-03T23:11:21.056Z,6.88
2022-11-03T23:13:59.102Z,6.95
2022-11-03T23:16:31.422Z,7.07
2022-11-03T23:19:21.639Z,6.96
2022-11-03T23:21:50.228Z,7.12
2022-11-03T23:24:39.217Z,7.08
2022-11-03T23:27:09.422Z,6.99
2022-11-03T23:29:39.371Z,7.05
2022-11-03T23:32:09.456Z,7.11
2022-11-03T23:34:36.099Z,7.19
2022-11-03T23:37:03.192Z,7.13
2022-11-03T23:39:30.114Z,7.10
2022-11-03T23:41:56.743Z,7.08
2022-11-03T23:44:23.507Z,7.10
2022-11-03T23:47:09.129Z,7.08
2022-11-03T23:49:35.948Z,7.10
2022-11-03T23:52:02.757Z,7.02
2022-11-03T23:54:29.487Z,7.17
2022-11-03T23:57:14.818Z,7.10
2022-11-03T23:59:41.538Z,7.07
